Time;durP1;ratioP1;P1;durP2;ratioP2;P2;SDS_P1;SDS_P2;PMS_P1;PMS_P2;Temp;Humidity;BMP_temperature;BMP_pressure;BME280_temperature;BME280_humidity;BME280_pressure;Samples;Min_cycle;Max_cycle;Signal;HPM_P1;HPM_P2
2022/02/11 00:00:02;;;;;;;29.33;23.27;;;;;;;7.51;100.00;99185.00;2089838;28;20203;-71
2022/02/11 00:01:18;;;;;;;24.48;21.90;;;;;;;7.59;100.00;99192.41;2083683;28;20199;-71
2022/02/11 00:02:22;;;;;;;28.25;22.75;;;;;;;7.59;100.00;99187.88;2090378;28;20270;-71
2022/02/11 00:05:18;;;;;;;31.55;23.27;;;;;;;7.56;100.00;99193.75;2092169;28;20265;-71
2022/02/11 00:06:41;;;;;;;28.98;23.10;;;;;;;7.49;100.00;99195.09;2089398;28;20222;-71
2022/02/11 00:07:45;;;;;;;27.38;24.17;;;;;;;7.52;100.00;99199.84;2090143;28;20225;-72
2022/02/11 00:08:47;;;;;;;31.10;23.00;;;;;;;7.51;100.00;99187.66;2090768;28;20198;-71
2022/02/11 00:09:54;;;;;;;26.27;22.75;;;;;;;7.49;100.00;99185.28;2090484;28;20205;-72
2022/02/11 00:11:00;;;;;;;28.92;22.75;;;;;;;7.51;100.00;99200.94;2090758;28;20179;-72
2022/02/11 00:12:03;;;;;;;27.65;22.23;;;;;;;7.50;100.00;99196.69;2090747;28;20644;-72
2022/02/11 00:13:05;;;;;;;27.55;23.10;;;;;;;7.49;100.00;99193.25;2090325;28;20598;-71
2022/02/11 00:14:11;;;;;;;29.52;23.45;;;;;;;7.48;100.00;99193.50;2090481;28;20198;-71
2022/02/11 00:16:44;;;;;;;28.90;23.23;;;;;;;7.44;100.00;99195.91;2106155;27;20554;-70
2022/02/11 00:17:47;;;;;;;28.70;23.10;;;;;;;7.41;100.00;99193.00;2106226;28;20205;-71
2022/02/11 00:18:53;;;;;;;29.50;23.88;;;;;;;7.40;100.00;99188.78;2105879;28;20190;-70
2022/02/11 00:19:57;;;;;;;27.67;23.55;;;;;;;7.42;100.00;99189.28;2105982;28;20181;-71
2022/02/11 00:21:02;;;;;;;34.17;23.10;;;;;;;7.42;100.00;99197.25;2103155;28;20189;-72
2022/02/11 00:22:05;;;;;;;27.42;22.83;;;;;;;7.39;100.00;99197.78;2089371;28;20727;-71
2022/02/11 00:23:08;;;;;;;26.10;22.88;;;;;;;7.39;100.00;99197.78;2089458;28;20270;-71
2022/02/11 00:24:11;;;;;;;30.45;23.65;;;;;;;7.34;100.00;99204.69;2089285;28;20588;-71
2022/02/11 00:25:16;;;;;;;28.83;24.00;;;;;;;7.38;100.00;99204.94;2088631;28;20194;-71
2022/02/11 00:26:18;;;;;;;30.65;23.38;;;;;;;7.41;100.00;99199.09;2081363;28;20207;-71
2022/02/11 00:29:40;;;;;;;30.02;23.52;;;;;;;7.30;100.00;99194.91;2088056;28;20198;-71
2022/02/11 00:30:50;;;;;;;27.95;22.85;;;;;;;7.20;100.00;99195.72;2087682;28;20704;-71
2022/02/11 00:32:04;;;;;;;26.58;22.27;;;;;;;7.20;100.00;99195.72;2084346;28;20199;-71
2022/02/11 00:33:18;;;;;;;26.90;23.10;;;;;;;7.19;100.00;99188.81;2088729;28;20237;-71
2022/02/11 00:34:30;;;;;;;32.90;22.95;;;;;;;7.21;100.00;99201.81;2088783;28;20308;-71
2022/02/11 00:35:39;;;;;;;29.23;23.20;;;;;;;7.21;100.00;99197.31;2088972;28;20172;-71
2022/02/11 00:36:48;;;;;;;25.95;23.08;;;;;;;7.25;100.00;99203.66;2088790;28;20284;-71
2022/02/11 00:37:51;;;;;;;24.70;22.05;;;;;;;7.24;100.00;99206.59;2089251;28;20538;-71
2022/02/11 00:39:12;;;;;;;25.20;22.50;;;;;;;7.25;100.00;99206.31;2089173;28;20245;-70
2022/02/11 00:40:26;;;;;;;24.77;22.20;;;;;;;7.35;100.00;99208.16;2089163;28;20205;-71
2022/02/11 00:46:08;;;;;;;27.15;23.80;;;;;;;7.45;100.00;99207.31;2066659;28;20287;-70
2022/02/11 01:02:27;;;;;;;25.65;22.40;;;;;;;7.21;100.00;99197.31;2088721;28;20199;-71
2022/02/11 01:03:45;;;;;;;28.98;23.35;;;;;;;7.18;100.00;99205.81;2081878;28;20241;-71
2022/02/11 01:04:50;;;;;;;29.23;23.70;;;;;;;7.06;100.00;99192.84;2088234;28;20206;-71
2022/02/11 01:05:51;;;;;;;28.20;23.48;;;;;;;7.03;100.00;99201.31;2088547;28;20187;-71
2022/02/11 01:06:57;;;;;;;27.83;22.97;;;;;;;7.01;100.00;99186.75;2088730;28;20218;-71
2022/02/11 01:08:00;;;;;;;26.75;23.30;;;;;;;6.97;100.00;99191.00;2089222;28;20963;-70
2022/02/11 01:09:04;;;;;;;29.92;24.50;;;;;;;6.96;100.00;99195.53;2089058;28;20211;-71
2022/02/11 01:10:07;;;;;;;26.48;23.45;;;;;;;6.94;100.00;99194.97;2088220;28;20196;-72
2022/02/11 01:11:16;;;;;;;28.52;23.85;;;;;;;6.89;100.00;99187.06;2088631;28;20254;-70
2022/02/11 01:12:19;;;;;;;29.02;23.35;;;;;;;6.91;100.00;99197.38;2088672;28;20198;-70
2022/02/11 01:13:23;;;;;;;28.73;24.20;;;;;;;6.88;100.00;99192.63;2088909;28;20202;-71
2022/02/11 01:14:34;;;;;;;27.42;23.08;;;;;;;6.86;100.00;99190.22;2088378;28;20203;-71
2022/02/11 01:15:42;;;;;;;31.42;23.17;;;;;;;6.82;100.00;99189.19;2081452;28;20199;-71
2022/02/11 01:16:52;;;;;;;28.20;23.98;;;;;;;6.78;100.00;99190.78;2088365;28;20249;-70
2022/02/11 01:18:00;;;;;;;28.65;24.30;;;;;;;6.72;100.00;99195.28;2088125;28;20273;-70
2022/02/11 01:19:11;;;;;;;25.25;22.48;;;;;;;6.70;100.00;99193.97;2088530;28;20625;-70
2022/02/11 01:20:18;;;;;;;28.33;23.60;;;;;;;6.67;100.00;99191.84;2088235;28;20210;-70
2022/02/11 01:21:31;;;;;;;28.10;24.42;;;;;;;6.66;100.00;99184.94;2087871;28;20577;-71
2022/02/11 01:22:55;;;;;;;29.13;23.77;;;;;;;6.63;100.00;99196.91;2088078;28;20289;-70
2022/02/11 01:24:08;;;;;;;28.73;23.77;;;;;;;6.54;100.00;99187.88;2088690;28;20233;-71
2022/02/11 01:25:41;;;;;;;28.45;23.75;;;;;;;6.52;100.00;99197.97;2089078;28;20646;-71
2022/02/11 01:26:52;;;;;;;28.85;23.48;;;;;;;6.53;100.00;99199.56;2088469;28;20611;-71
2022/02/11 01:28:03;;;;;;;26.40;23.52;;;;;;;6.51;100.00;99189.22;2083955;28;20175;-70
2022/02/11 01:29:45;;;;;;;26.27;23.30;;;;;;;6.46;100.00;99191.88;2083253;28;20246;-71
2022/02/11 01:30:58;;;;;;;28.83;24.08;;;;;;;6.45;100.00;99194.78;2083239;28;20614;-71
2022/02/11 01:32:17;;;;;;;27.35;24.10;;;;;;;6.38;100.00;99196.91;2083370;28;20175;-71
2022/02/11 01:34:53;;;;;;;26.67;23.52;;;;;;;6.33;100.00;99196.88;2081854;28;20532;-70
2022/02/11 01:36:07;;;;;;;30.77;25.15;;;;;;;6.33;100.00;99197.69;2082355;28;20665;-71
2022/02/11 01:37:26;;;;;;;28.65;24.70;;;;;;;6.35;100.00;99189.50;2082928;28;20208;-71
2022/02/11 01:38:38;;;;;;;31.70;25.52;;;;;;;6.36;100.00;99201.66;2082573;28;20203;-70
2022/02/11 01:45:52;;;;;;;32.28;24.85;;;;;;;6.44;100.00;99193.19;2083165;28;20556;-71
2022/02/11 01:51:21;;;;;;;28.60;24.63;;;;;;;6.55;100.00;99189.47;2082524;28;20225;-71
2022/02/11 01:52:40;;;;;;;25.85;23.05;;;;;;;6.53;100.00;99196.91;2082416;28;20595;-71
2022/02/11 01:53:48;;;;;;;27.15;24.20;;;;;;;6.52;100.00;99182.06;2082970;28;20250;-71
2022/02/11 01:55:02;;;;;;;28.20;24.30;;;;;;;6.55;100.00;99186.03;2082496;28;20652;-70
2022/02/11 01:56:29;;;;;;;26.50;23.83;;;;;;;6.56;100.00;99184.97;2082846;28;20179;-70
2022/02/11 01:58:11;;;;;;;26.70;23.40;;;;;;;6.50;100.00;99182.31;2082366;28;20208;-70
2022/02/11 02:00:58;;;;;;;27.88;24.10;;;;;;;6.49;100.00;99177.28;2076775;28;20295;-70
2022/02/11 02:02:43;;;;;;;25.58;22.83;;;;;;;6.45;100.00;99173.59;2077265;28;20231;-71
2022/02/11 02:09:56;;;;;;;27.77;23.40;;;;;;;6.49;100.00;99169.31;2082384;28;20187;-71
2022/02/11 02:11:27;;;;;;;32.60;25.55;;;;;;;6.48;100.00;99157.13;2082509;28;20197;-71
2022/02/11 02:14:34;;;;;;;28.95;25.40;;;;;;;6.49;100.00;99156.88;2083075;28;20182;-71
2022/02/11 02:16:05;;;;;;;35.92;24.50;;;;;;;6.53;100.00;99153.69;2083006;28;20259;-71
2022/02/11 02:17:58;;;;;;;28.95;25.13;;;;;;;6.50;100.00;99149.72;2082926;28;20673;-72
2022/02/11 02:23:07;;;;;;;28.42;24.13;;;;;;;6.43;100.00;99162.47;2082599;28;20180;-71
2022/02/11 02:24:25;;;;;;;28.95;24.00;;;;;;;6.45;100.00;99152.38;2082888;28;20244;-72
2022/02/11 02:25:38;;;;;;;27.92;24.63;;;;;;;6.44;100.00;99153.44;2082458;28;20207;-71
2022/02/11 02:27:00;;;;;;;28.40;24.23;;;;;;;6.46;100.00;99153.97;2076084;28;20208;-71
2022/02/11 02:28:37;;;;;;;26.80;23.77;;;;;;;6.40;100.00;99147.06;2085134;28;20232;-71
2022/02/11 02:34:13;;;;;;;31.55;24.48;;;;;;;6.40;100.00;99152.38;2065510;28;20300;-71
2022/02/11 02:38:22;;;;;;;26.85;22.98;;;;;;;6.34;100.00;99140.19;2051131;28;20198;-71
2022/02/11 02:43:21;;;;;;;26.02;23.17;;;;;;;6.35;100.00;99142.59;2066869;28;20248;-72
2022/02/11 02:50:25;;;;;;;29.33;24.83;;;;;;;6.46;100.00;99146.81;2082858;28;20187;-72
2022/02/11 02:57:07;;;;;;;29.75;24.23;;;;;;;6.40;100.00;99147.06;2082200;28;20215;-72
2022/02/11 02:58:14;;;;;;;30.88;24.45;;;;;;;6.42;100.00;99147.59;2082409;28;20171;-72
2022/02/11 02:59:29;;;;;;;30.63;24.85;;;;;;;6.39;100.00;99148.13;2082259;28;20204;-72
2022/02/11 03:02:11;;;;;;;33.35;25.35;;;;;;;6.39;100.00;99145.47;2082566;28;20199;-71
2022/02/11 03:16:34;;;;;;;30.63;25.17;;;;;;;6.21;100.00;99150.25;2052737;28;20237;-72
2022/02/11 03:17:56;;;;;;;31.20;24.98;;;;;;;6.22;100.00;99148.41;2082261;28;20223;-72
2022/02/11 03:35:11;;;;;;;38.85;26.63;;;;;;;5.93;100.00;99161.38;2081588;28;20195;-71
2022/02/11 03:50:18;;;;;;;33.17;26.40;;;;;;;5.91;100.00;99164.28;2082402;28;20180;-71
2022/02/11 03:51:40;;;;;;;32.63;26.17;;;;;;;5.90;100.00;99161.84;2081541;28;20302;-71
2022/02/11 03:53:30;;;;;;;31.80;25.25;;;;;;;5.92;100.00;99168.50;2082305;28;20210;-71
2022/02/11 03:55:07;;;;;;;34.72;25.27;;;;;;;5.92;100.00;99171.16;2081374;28;20258;-71
2022/02/11 03:56:38;;;;;;;35.72;27.67;;;;;;;5.90;100.00;99162.66;2081820;28;20191;-71
2022/02/11 03:58:13;;;;;;;33.97;25.75;;;;;;;5.91;100.00;99172.22;2082173;28;20227;-71
2022/02/11 04:24:12;;;;;;;35.30;26.33;;;;;;;5.95;100.00;99172.47;2076442;28;20206;-71
2022/02/11 04:53:56;;;;;;;33.65;27.63;;;;;;;6.12;100.00;99177.53;2068051;28;20290;-71
2022/02/11 04:55:02;;;;;;;34.08;26.77;;;;;;;6.15;100.00;99169.84;2073427;28;20214;-71
2022/02/11 04:56:05;;;;;;;42.47;26.98;;;;;;;6.11;100.00;99179.41;2073345;28;20716;-71
2022/02/11 04:59:46;;;;;;;36.28;27.10;;;;;;;6.20;100.00;99166.41;2073420;28;20205;-71
2022/02/11 05:00:47;;;;;;;36.50;27.35;;;;;;;6.17;100.00;99164.31;2066281;28;20561;-71
2022/02/11 05:01:53;;;;;;;35.17;27.55;;;;;;;6.17;100.00;99166.97;2073168;28;20678;-71
2022/02/11 05:02:57;;;;;;;33.08;26.80;;;;;;;6.09;100.00;99165.63;2073701;28;20203;-71
2022/02/11 05:04:00;;;;;;;32.13;26.55;;;;;;;6.09;100.00;99173.56;2074665;28;20295;-71
2022/02/11 05:05:04;;;;;;;36.90;26.50;;;;;;;6.12;100.00;99170.38;2075321;28;20241;-71
2022/02/11 05:06:07;;;;;;;32.53;26.98;;;;;;;6.13;100.00;99176.47;2074840;28;20548;-71
2022/02/11 05:07:10;;;;;;;34.50;26.50;;;;;;;6.10;100.00;99167.22;2075289;28;20684;-71
2022/02/11 05:08:15;;;;;;;34.70;26.55;;;;;;;6.08;100.00;99165.88;2074557;28;20662;-71
2022/02/11 05:09:18;;;;;;;35.33;26.42;;;;;;;6.08;100.00;99174.63;2074563;28;20354;-71
2022/02/11 05:10:22;;;;;;;35.28;27.17;;;;;;;6.08;100.00;99174.63;2067052;28;20205;-72
2022/02/11 05:11:24;;;;;;;34.20;26.67;;;;;;;6.07;100.00;99173.00;2074729;28;20191;-71
2022/02/11 05:12:27;;;;;;;34.30;27.15;;;;;;;6.08;100.00;99163.22;2075253;28;20188;-71
2022/02/11 05:13:29;;;;;;;34.47;26.75;;;;;;;6.05;100.00;99164.53;2075213;28;20200;-72
2022/02/11 05:14:34;;;;;;;32.03;26.40;;;;;;;6.08;100.00;99174.63;2075247;28;20632;-71
2022/02/11 05:15:37;;;;;;;36.22;27.13;;;;;;;6.04;100.00;99168.25;2075147;28;20604;-71
2022/02/11 05:16:40;;;;;;;30.25;26.00;;;;;;;6.05;100.00;99175.13;2074639;28;20224;-71
2022/02/11 05:17:43;;;;;;;31.23;25.77;;;;;;;6.04;100.00;99175.41;2074867;28;20192;-71
2022/02/11 05:18:48;;;;;;;35.05;26.88;;;;;;;6.01;100.00;99162.69;2074509;28;20291;-72
2022/02/11 05:19:51;;;;;;;32.10;26.10;;;;;;;6.03;100.00;99174.63;2067022;28;20343;-71
2022/02/11 05:20:55;;;;;;;32.78;27.48;;;;;;;6.03;100.00;99166.66;2074656;28;20617;-72
2022/02/11 05:21:59;;;;;;;34.33;26.75;;;;;;;6.02;100.00;99174.88;2083350;28;20692;-70
2022/02/11 05:23:07;;;;;;;35.63;26.60;;;;;;;6.02;100.00;99165.09;2082869;28;20720;-71
2022/02/11 05:24:10;;;;;;;37.42;27.55;;;;;;;6.02;100.00;99170.38;2082824;28;20196;-71
2022/02/11 05:25:12;;;;;;;35.78;27.88;;;;;;;5.98;100.00;99166.66;2083448;28;20222;-71
2022/02/11 05:26:15;;;;;;;33.10;27.17;;;;;;;5.99;100.00;99167.44;2083031;28;20296;-71
2022/02/11 05:27:21;;;;;;;37.30;28.83;;;;;;;6.01;100.00;99163.50;2075092;28;20347;-71
2022/02/11 05:28:24;;;;;;;37.88;27.88;;;;;;;6.00;100.00;99164.56;2082789;28;20259;-71
2022/02/11 05:29:29;;;;;;;34.70;28.45;;;;;;;6.00;100.00;99163.75;2083537;28;20222;-71
2022/02/11 05:30:31;;;;;;;30.80;26.77;;;;;;;6.02;100.00;99169.59;2083001;28;20199;-71
2022/02/11 05:31:35;;;;;;;38.55;27.67;;;;;;;6.00;100.00;99166.41;2082820;28;20191;-71
2022/02/11 05:32:37;;;;;;;33.13;27.17;;;;;;;6.00;100.00;99169.06;2082574;28;20227;-71
2022/02/11 05:33:39;;;;;;;36.95;28.48;;;;;;;6.00;100.00;99167.22;2074418;28;20271;-71
2022/02/11 05:34:44;;;;;;;35.40;28.13;;;;;;;6.05;100.00;99164.53;2082678;28;20199;-71
2022/02/11 05:35:48;;;;;;;35.10;28.15;;;;;;;6.04;100.00;99165.59;2090726;28;20198;-71
2022/02/11 05:36:53;;;;;;;37.33;27.60;;;;;;;6.05;100.00;99164.53;2081749;28;20408;-72
2022/02/11 05:37:55;;;;;;;30.45;26.98;;;;;;;6.06;100.00;99170.63;2082627;28;20188;-72
2022/02/11 05:38:58;;;;;;;31.35;26.42;;;;;;;6.06;100.00;99170.63;2082944;28;20209;-71
2022/02/11 05:40:01;;;;;;;35.90;28.45;;;;;;;6.07;100.00;99167.72;2082626;28;20203;-71
2022/02/11 05:41:04;;;;;;;36.22;29.30;;;;;;;6.03;100.00;99150.78;2082856;28;20544;-71
2022/02/11 05:42:08;;;;;;;37.28;30.17;;;;;;;6.08;100.00;99168.50;2074907;28;20200;-71
2022/02/11 05:43:10;;;;;;;39.42;29.27;;;;;;;6.06;100.00;99165.34;2074816;28;20204;-71
2022/02/11 05:44:13;;;;;;;35.72;29.67;;;;;;;6.03;100.00;99166.66;2082554;28;20188;-71
2022/02/11 05:45:15;;;;;;;39.13;29.45;;;;;;;6.01;100.00;99166.16;2083185;28;20191;-71
2022/02/11 05:46:18;;;;;;;35.75;28.98;;;;;;;6.02;100.00;99175.69;2083180;28;20275;-71
2022/02/11 05:47:20;;;;;;;35.88;28.73;;;;;;;6.01;100.00;99168.78;2082354;28;20200;-71
2022/02/11 05:48:25;;;;;;;32.47;28.33;;;;;;;6.00;100.00;99167.22;2074454;28;20204;-71
2022/02/11 05:49:28;;;;;;;35.47;29.15;;;;;;;5.98;100.00;99157.91;2082514;28;20199;-71
2022/02/11 05:50:34;;;;;;;36.75;29.20;;;;;;;5.97;100.00;99165.06;2083116;28;20275;-71
2022/02/11 05:51:37;;;;;;;35.00;28.92;;;;;;;5.99;100.00;99165.59;2082746;28;20722;-71
2022/02/11 05:52:41;;;;;;;34.67;28.98;;;;;;;6.00;100.00;99172.50;2083104;28;20215;-71
2022/02/11 05:53:44;;;;;;;37.15;28.17;;;;;;;5.99;100.00;99172.75;2083168;28;20241;-71
2022/02/11 05:54:47;;;;;;;34.60;28.10;;;;;;;5.99;100.00;99168.25;2083225;28;20188;-71
2022/02/11 05:55:50;;;;;;;35.85;29.27;;;;;;;5.98;100.00;99169.31;2083138;28;20180;-71
2022/02/11 05:56:56;;;;;;;36.58;30.08;;;;;;;5.97;100.00;99173.00;2082986;28;20195;-70
2022/02/11 05:58:00;;;;;;;43.38;32.17;;;;;;;5.92;100.00;99171.16;2082401;28;20216;-71
2022/02/11 05:59:05;;;;;;;43.17;37.25;;;;;;;5.86;100.00;99174.03;2082956;28;20233;-71
2022/02/11 06:00:10;;;;;;;45.30;37.25;;;;;;;5.77;100.00;99170.31;2090320;28;20171;-72
2022/02/11 06:01:18;;;;;;;48.75;39.42;;;;;;;5.67;100.00;99174.50;2083325;28;20172;-72
2022/02/11 06:02:20;;;;;;;47.40;39.30;;;;;;;5.59;100.00;99171.59;2083068;28;20219;-72
2022/02/11 06:03:25;;;;;;;49.22;39.42;;;;;;;5.47;100.00;99169.13;2082183;28;20253;-72
2022/02/11 06:04:29;;;;;;;48.08;39.00;;;;;;;5.42;100.00;99169.13;2082657;28;20206;-72
2022/02/11 06:05:33;;;;;;;49.25;38.35;;;;;;;5.40;100.00;99160.66;2074712;28;20554;-72
2022/02/11 06:06:38;;;;;;;50.65;38.35;;;;;;;5.40;100.00;99165.97;2081948;28;20227;-71
2022/02/11 06:07:41;;;;;;;48.53;38.42;;;;;;;5.38;100.00;99162.75;2083211;28;20291;-72
2022/02/11 06:08:46;;;;;;;43.63;37.80;;;;;;;5.34;100.00;99174.94;2083142;28;20195;-71
2022/02/11 06:09:47;;;;;;;52.60;38.95;;;;;;;5.32;100.00;99174.41;2082571;28;20661;-72
2022/02/11 06:10:53;;;;;;;45.38;37.35;;;;;;;5.31;100.00;99180.75;2082366;28;20245;-72
2022/02/11 06:11:55;;;;;;;48.38;38.10;;;;;;;5.30;100.00;99179.13;2082546;28;20210;-72
2022/02/11 06:12:58;;;;;;;47.83;38.25;;;;;;;5.28;100.00;99178.59;2082375;28;20195;-71
2022/02/11 06:14:02;;;;;;;48.03;37.30;;;;;;;5.27;100.00;99185.72;2082941;28;20195;-72
2022/02/11 06:15:06;;;;;;;45.72;37.00;;;;;;;5.28;100.00;99181.25;2083152;28;20191;-72
2022/02/11 06:16:12;;;;;;;43.78;36.88;;;;;;;5.23;100.00;99181.25;2082609;28;20235;-71
2022/02/11 06:17:15;;;;;;;45.88;36.90;;;;;;;5.26;100.00;99188.66;2082719;28;20270;-72
2022/02/11 06:18:19;;;;;;;43.95;37.08;;;;;;;5.28;100.00;99187.31;2082178;28;20274;-72
2022/02/11 06:19:24;;;;;;;46.00;37.00;;;;;;;5.31;100.00;99186.03;2082165;28;20191;-71
2022/02/11 06:20:28;;;;;;;43.60;37.05;;;;;;;5.32;100.00;99182.34;2082909;28;20184;-72
2022/02/11 06:21:34;;;;;;;46.97;37.20;;;;;;;5.34;100.00;99180.22;2082507;28;20231;-72
2022/02/11 06:22:39;;;;;;;52.10;37.50;;;;;;;5.38;100.00;99190.00;2083174;28;20176;-72
2022/02/11 06:23:46;;;;;;;50.40;37.33;;;;;;;5.54;100.00;99187.44;2082087;28;20298;-72
2022/02/11 06:24:47;;;;;;;51.47;37.40;;;;;;;5.67;100.00;99189.59;2082269;28;20187;-71
2022/02/11 06:25:51;;;;;;;48.88;37.90;;;;;;;5.64;100.00;99185.59;2090298;28;20191;-71
2022/02/11 06:26:52;;;;;;;52.03;39.80;;;;;;;5.52;100.00;99186.91;2082050;28;20276;-71
2022/02/11 06:27:56;;;;;;;50.67;38.13;;;;;;;5.43;100.00;99191.91;2082138;28;20200;-71
2022/02/11 06:28:57;;;;;;;55.35;38.40;;;;;;;5.39;100.00;99193.47;2082105;28;20574;-72
2022/02/11 06:30:01;;;;;;;50.50;37.95;;;;;;;5.35;100.00;99195.81;2082169;28;20269;-72
2022/02/11 06:31:05;;;;;;;55.47;38.65;;;;;;;5.35;100.00;99190.53;2082293;28;20192;-72
2022/02/11 06:32:09;;;;;;;49.20;37.97;;;;;;;5.29;100.00;99188.91;2082778;28;20665;-72
2022/02/11 06:33:13;;;;;;;53.33;38.80;;;;;;;5.26;100.00;99189.44;2082493;28;20227;-71
2022/02/11 06:34:16;;;;;;;48.80;38.83;;;;;;;5.25;100.00;99198.44;2082070;28;20215;-71
2022/02/11 06:35:19;;;;;;;51.47;39.17;;;;;;;5.23;100.00;99195.25;2082475;28;20234;-71
2022/02/11 06:36:25;;;;;;;51.05;38.55;;;;;;;5.20;100.00;99202.88;2073972;28;20254;-71
2022/02/11 06:37:30;;;;;;;58.90;39.60;;;;;;;5.18;100.00;99197.88;2082246;28;20772;-71
2022/02/11 06:38:34;;;;;;;51.80;38.78;;;;;;;5.17;100.00;99195.47;2082254;28;20215;-71
2022/02/11 06:39:38;;;;;;;52.63;38.80;;;;;;;5.17;100.00;99200.78;2074481;28;20211;-71
2022/02/11 06:40:42;;;;;;;52.72;39.90;;;;;;;5.17;100.00;99203.41;2082218;28;20191;-71
2022/02/11 06:41:45;;;;;;;55.40;40.13;;;;;;;5.18;100.00;99191.78;2082714;28;20317;-71
2022/02/11 06:42:48;;;;;;;51.72;40.40;;;;;;;5.18;100.00;99195.22;2082754;28;20192;-71
2022/02/11 06:43:51;;;;;;;49.10;39.65;;;;;;;5.21;100.00;99199.19;2082760;28;20200;-71
2022/02/11 06:44:58;;;;;;;48.58;39.35;;;;;;;5.20;100.00;99200.25;2081835;28;20211;-71
2022/02/11 06:46:02;;;;;;;54.53;41.65;;;;;;;5.23;100.00;99202.41;2074657;28;20725;-71
2022/02/11 06:47:05;;;;;;;59.22;40.70;;;;;;;5.26;100.00;99202.66;2082077;28;20684;-72
2022/02/11 06:48:08;;;;;;;52.55;41.00;;;;;;;5.27;100.00;99201.59;2081524;28;20206;-71
2022/02/11 06:49:13;;;;;;;51.60;41.70;;;;;;;5.25;100.00;99202.94;2082095;28;20196;-71
2022/02/11 06:50:16;;;;;;;61.58;42.28;;;;;;;5.23;100.00;99195.25;2082665;28;20650;-71
2022/02/11 06:51:17;;;;;;;53.90;40.63;;;;;;;5.26;100.00;99199.22;2082057;28;20223;-71
2022/02/11 06:52:20;;;;;;;59.20;41.03;;;;;;;5.29;100.00;99196.06;2082527;28;20191;-72
2022/02/11 06:53:25;;;;;;;55.83;41.38;;;;;;;5.27;100.00;99191.03;2082173;28;20534;-71
2022/02/11 06:54:27;;;;;;;56.92;40.95;;;;;;;5.30;100.00;99197.66;2074313;28;20208;-72
2022/02/11 06:55:30;;;;;;;60.47;40.80;;;;;;;5.33;100.00;99197.94;2082159;28;20187;-72
2022/02/11 06:56:32;;;;;;;58.17;40.85;;;;;;;5.33;100.00;99195.28;2082206;28;20204;-71
2022/02/11 06:57:38;;;;;;;56.25;40.20;;;;;;;5.36;100.00;99199.25;2082070;28;20194;-72
2022/02/11 06:58:39;;;;;;;59.30;40.60;;;;;;;5.38;100.00;99194.50;2082823;28;20230;-72
2022/02/11 06:59:47;;;;;;;54.20;40.88;;;;;;;5.37;100.00;99188.41;2090071;28;20206;-71
2022/02/11 07:00:53;;;;;;;51.17;38.50;;;;;;;5.37;100.00;99191.06;2089350;28;20179;-72
2022/02/11 07:01:55;;;;;;;54.47;39.83;;;;;;;5.38;100.00;99190.00;2082658;28;20202;-71
2022/02/11 07:03:00;;;;;;;54.97;40.80;;;;;;;5.39;100.00;99193.47;2082568;28;20721;-72
2022/02/11 07:04:01;;;;;;;53.40;41.33;;;;;;;5.43;100.00;99183.97;2082265;28;20219;-72
2022/02/11 07:05:04;;;;;;;55.90;40.70;;;;;;;5.41;100.00;99180.00;2082131;28;20293;-71
2022/02/11 07:06:05;;;;;;;55.25;41.08;;;;;;;5.41;100.00;99185.28;2082047;28;20190;-72
2022/02/11 07:07:07;;;;;;;57.40;39.93;;;;;;;5.43;100.00;99185.81;2090218;28;20641;-72
2022/02/11 07:08:09;;;;;;;57.72;41.75;;;;;;;5.36;100.00;99188.69;2082147;28;20476;-75
2022/02/11 07:09:13;;;;;;;55.80;39.78;;;;;;;5.34;100.00;99183.66;2074106;28;20692;-71
2022/02/11 07:10:15;;;;;;;55.03;40.30;;;;;;;5.34;100.00;99188.16;2082042;28;20219;-71
2022/02/11 07:11:17;;;;;;;55.78;40.83;;;;;;;5.40;100.00;99187.13;2090039;28;20191;-72
2022/02/11 07:12:20;;;;;;;60.33;41.90;;;;;;;5.45;100.00;99192.44;2081859;28;20200;-71
2022/02/11 07:13:23;;;;;;;55.47;41.30;;;;;;;5.46;100.00;99182.63;2081957;28;20192;-71
2022/02/11 07:14:26;;;;;;;58.97;40.28;;;;;;;5.44;100.00;99190.84;2082521;28;20191;-72
2022/02/11 07:15:34;;;;;;;52.15;38.67;;;;;;;5.37;100.00;99182.34;2082082;28;20203;-73
2022/02/11 07:16:37;;;;;;;51.50;40.13;;;;;;;5.38;100.00;99192.66;2074422;28;20235;-70
2022/02/11 07:17:40;;;;;;;48.40;37.47;;;;;;;5.37;100.00;99190.28;2081648;28;20629;-70
2022/02/11 07:18:44;;;;;;;56.45;40.65;;;;;;;5.34;100.00;99191.59;2082102;28;20210;-70
2022/02/11 07:19:47;;;;;;;55.17;41.05;;;;;;;5.36;100.00;99191.34;2074238;28;20204;-70
2022/02/11 07:20:51;;;;;;;61.08;41.17;;;;;;;5.34;100.00;99190.81;2074009;28;20200;-69
2022/02/11 07:21:54;;;;;;;58.67;42.00;;;;;;;5.34;100.00;99188.94;2081734;28;20211;-69
2022/02/11 07:22:59;;;;;;;55.42;41.15;;;;;;;5.38;100.00;99199.78;2073769;28;20196;-71
2022/02/11 07:24:03;;;;;;;55.67;40.60;;;;;;;5.36;100.00;99196.63;2074366;28;20610;-70
2022/02/11 07:25:10;;;;;;;55.92;39.88;;;;;;;5.35;100.00;99193.19;2081737;28;20580;-70
2022/02/11 07:26:11;;;;;;;55.65;41.00;;;;;;;5.39;100.00;99193.47;2081457;28;20200;-70
2022/02/11 07:27:15;;;;;;;68.47;41.88;;;;;;;5.48;100.00;99186.63;2082333;28;20191;-70
2022/02/11 07:28:20;;;;;;;58.42;41.53;;;;;;;5.49;100.00;99182.94;2082336;28;20192;-67
2022/02/11 07:29:23;;;;;;;53.67;39.00;;;;;;;5.49;100.00;99182.94;2082038;28;20207;-68
2022/02/11 07:30:26;;;;;;;62.15;40.92;;;;;;;5.50;100.00;99181.88;2081772;28;20191;-67
2022/02/11 07:31:27;;;;;;;57.35;40.38;;;;;;;5.49;100.00;99180.28;2089968;28;20233;-66
2022/02/11 07:32:30;;;;;;;54.03;39.67;;;;;;;5.49;100.00;99180.28;2081689;28;20711;-74
2022/02/11 07:33:32;;;;;;;55.42;40.05;;;;;;;5.48;100.00;99170.75;2081660;28;20434;-75
2022/02/11 07:34:34;;;;;;;53.30;39.20;;;;;;;5.48;100.00;99172.59;2082206;28;20199;-70
2022/02/11 07:35:39;;;;;;;55.08;39.10;;;;;;;5.49;100.00;99169.69;2081538;28;20234;-72
2022/02/11 07:36:43;;;;;;;52.92;38.22;;;;;;;5.49;100.00;99169.69;2081779;28;20223;-73
2022/02/11 07:37:46;;;;;;;55.08;39.13;;;;;;;5.51;100.00;99175.53;2082334;28;20190;-73
2022/02/11 07:38:50;;;;;;;56.83;40.05;;;;;;;5.49;100.00;99172.34;2082750;28;20202;-72
2022/02/11 07:39:51;;;;;;;52.83;38.10;;;;;;;5.49;100.00;99163.63;2073581;28;20203;-70
2022/02/11 07:40:54;;;;;;;56.30;38.33;;;;;;;5.53;100.00;99175.25;2073960;28;20216;-71
2022/02/11 07:41:55;;;;;;;56.20;37.63;;;;;;;5.56;100.00;99175.56;2081874;28;20207;-72
2022/02/11 07:42:58;;;;;;;52.93;37.47;;;;;;;5.60;100.00;99178.47;2073722;28;20204;-70
2022/02/11 07:44:01;;;;;;;56.45;39.70;;;;;;;5.60;100.00;99178.47;2081713;28;20195;-69
2022/02/11 07:45:05;;;;;;;57.78;39.03;;;;;;;5.64;100.00;99179.50;2074016;28;20568;-71
2022/02/11 07:46:08;;;;;;;54.42;38.63;;;;;;;5.61;100.00;99172.91;2074134;28;20207;-70
2022/02/11 07:47:10;;;;;;;53.80;38.63;;;;;;;5.64;100.00;99168.94;2081734;28;20613;-71
2022/02/11 07:48:11;;;;;;;49.95;37.08;;;;;;;5.69;100.00;99171.59;2082406;28;20306;-72
2022/02/11 07:49:13;;;;;;;52.17;38.63;;;;;;;5.72;100.00;99170.28;2081504;28;20296;-70
2022/02/11 07:50:17;;;;;;;60.15;39.65;;;;;;;5.74;100.00;99173.47;2081669;28;20697;-72
2022/02/11 07:51:20;;;;;;;48.70;37.60;;;;;;;5.74;100.00;99173.47;2080901;28;20273;-71
2022/02/11 07:52:23;;;;;;;55.30;39.58;;;;;;;5.75;100.00;99165.28;2073236;28;20728;-70
2022/02/11 07:53:25;;;;;;;51.55;37.78;;;;;;;5.76;100.00;99160.78;2073637;28;20200;-71
2022/02/11 07:54:27;;;;;;;54.60;39.22;;;;;;;5.79;100.00;99166.31;2081688;28;20717;-69
2022/02/11 07:55:28;;;;;;;53.58;38.55;;;;;;;5.83;100.00;99166.63;2081744;28;20194;-70
2022/02/11 07:56:32;;;;;;;57.15;39.95;;;;;;;5.83;100.00;99166.63;2081653;28;20195;-70
2022/02/11 07:57:34;;;;;;;56.92;39.35;;;;;;;5.85;100.00;99169.78;2081430;28;20294;-69
2022/02/11 07:58:36;;;;;;;55.72;39.55;;;;;;;5.85;100.00;99164.50;2081822;28;20218;-72
2022/02/11 07:59:37;;;;;;;62.13;38.78;;;;;;;5.87;100.00;99165.03;2081562;28;20203;-69
2022/02/11 08:00:39;;;;;;;53.65;39.20;;;;;;;5.90;100.00;99167.13;2081532;28;20575;-69
2022/02/11 08:01:40;;;;;;;53.13;38.78;;;;;;;5.89;100.00;99160.25;2073440;28;20670;-69